Weather History for Elmendorf AFB, AK

Change the Weather History Date:

Friday, June 28, 2013

  Actual Average Record
Temperature  
Mean Temperature 56 °F -  
Max Temperature 58 °F 62 °F 80 °F (1997)
Min Temperature 54 °F 47 °F -3 °F (1971)
Degree Days  
Heating Degree Days 8    
Growing Degree Days 6 (Base 50)    
Moisture  
Dew Point 51 °F    
Average Humidity 83    
Maximum Humidity 90    
Minimum Humidity 75    
Precipitation  
Precipitation 0.00 in - - ()
Sea Level Pressure  
Sea Level Pressure 30.17 in    
Wind  
Wind Speed 3 mph (NW)    
Max Wind Speed 8 mph    
Max Gust Speed -    
Visibility 10 miles    
Events      
Averages and records for this station are not official NWS values.
T = Trace of Precipitation, MM = Missing Value Source: NWS Daily Summary

Daily Weather History Graph

Daily Weather History Graph

Search for Another Location

Airport:

Trip Planner

Search our weather history database for the weather conditions in past years. The results will help you decide how hot, cold, wet, or windy it might be!

Date:

Astronomy

Jun. 28, 2013 Rise Set
Actual Time 4:23 AM AKDT 11:40 PM AKDT
Civil Twilight 2:34 AM AKDT 1:30 AM AKDT
Nautical Twilight Sun does not rise Sun does not rise
Astronomical Twilight Sun does not rise Sun does not rise
Moon 12:43 AM AKDT (6/28) 12:52 PM AKDT (6/28)
Length of Visible Light 22h 55m
Length of Day
19h 17m
Waning Gibbous, 65% of the Moon is Illuminated
Jun 28
Waning Gibbous
Jun 29
Last Quarter
Jul 7
New
Jul 15
First Quarter
Jul 22
Full

Hourly Weather History & Observations

Time (AKDT) Temp. Dew Point Humidity Pressure Visibility Wind Dir Wind Speed Gust Speed Precip Events Conditions
12:55 AM 56.5 °F 52.7 °F 87% 30.10 in 10.0 mi NW 5.8 mph - N/A   Overcast
1:55 AM 56.8 °F 52.2 °F 84% 30.12 in 10.0 mi NNW 4.6 mph - N/A   Overcast
2:55 AM 56.1 °F 51.4 °F 84% 30.13 in 10.0 mi Calm Calm - N/A   Overcast
3:55 AM 56.1 °F 51.4 °F 84% 30.13 in 10.0 mi NNE 5.8 mph - N/A   Overcast
4:55 AM 55.9 °F 51.1 °F 84% 30.14 in 10.0 mi Calm Calm - N/A   Overcast
5:55 AM 56.1 °F 50.7 °F 82% 30.14 in 10.0 mi Calm Calm - N/A   Overcast
6:21 AM 55.4 °F 50.0 °F 82% 30.15 in 10.0 mi Calm Calm - N/A   Overcast
6:27 AM 57.2 °F 50.0 °F 77% 30.15 in 10.0 mi Calm Calm - N/A   Overcast
6:35 AM 57.2 °F 50.0 °F 77% 30.15 in 10.0 mi Calm Calm - N/A   Overcast
6:41 AM 57.2 °F 50.0 °F 77% 30.15 in 10.0 mi Calm Calm - N/A   Overcast
6:51 AM 57.2 °F 51.8 °F 82% 30.15 in 10.0 mi NNW 4.6 mph - N/A   Overcast
6:55 AM 56.3 °F 51.1 °F 83% 30.15 in 10.0 mi Calm Calm - N/A   Overcast
7:55 AM 55.4 °F 51.3 °F 86% 30.16 in 10.0 mi North 4.6 mph - N/A   Overcast
8:55 AM 55.2 °F 51.1 °F 86% 30.17 in 10.0 mi Calm Calm - N/A   Overcast
9:01 AM 55.4 °F 51.8 °F 88% 30.17 in 10.0 mi Calm Calm - N/A   Overcast
9:30 AM 55.4 °F 50.0 °F 82% 30.18 in 10.0 mi NW 6.9 mph - N/A   Overcast
9:55 AM 55.6 °F 50.9 °F 84% 30.18 in 10.0 mi NW 8.1 mph - N/A   Overcast
10:55 AM 55.4 °F 50.5 °F 84% 30.19 in 10.0 mi North 3.5 mph - N/A   Overcast
11:55 AM 54.9 °F 51.8 °F 89% 30.19 in 10.0 mi WNW 4.6 mph - N/A   Overcast
12:21 PM 55.4 °F 51.8 °F 88% 30.19 in 10.0 mi Calm Calm - N/A   Overcast
12:42 PM 57.2 °F 50.0 °F 77% 30.19 in 10.0 mi NNW 5.8 mph - N/A   Overcast
12:55 PM 56.7 °F 50.4 °F 79% 30.19 in 10.0 mi NNW 4.6 mph - N/A   Overcast
1:01 PM 57.2 °F 50.0 °F 77% 30.19 in 10.0 mi Calm Calm - N/A   Overcast
1:07 PM 57.2 °F 50.0 °F 77% 30.19 in 10.0 mi Calm Calm - N/A   Overcast
1:25 PM 57.2 °F 50.0 °F 77% 30.19 in 10.0 mi WNW 4.6 mph - N/A   Overcast
1:37 PM 57.2 °F 50.0 °F 77% 30.19 in 10.0 mi North 3.5 mph - N/A   Overcast
1:55 PM 56.7 °F 49.8 °F 78% 30.20 in 10.0 mi Calm Calm - N/A   Overcast
2:55 PM 57.6 °F 49.8 °F 75% 30.19 in 10.0 mi Calm Calm - N/A   Overcast
3:55 PM 57.9 °F 50.4 °F 76% 30.19 in 10.0 mi NW 3.5 mph - N/A   Overcast
4:29 PM 59.0 °F 51.8 °F 77% 30.19 in 10.0 mi Variable 4.6 mph - N/A   Overcast
4:55 PM 57.7 °F 51.4 °F 79% 30.18 in 10.0 mi NW 4.6 mph - N/A   Overcast
5:11 PM 57.2 °F 51.8 °F 82% 30.18 in 10.0 mi Calm Calm - N/A   Overcast
5:22 PM 57.2 °F 51.8 °F 82% 30.18 in 10.0 mi NNW 5.8 mph - N/A   Overcast
5:55 PM 57.6 °F 50.9 °F 78% 30.18 in 10.0 mi NW 5.8 mph - N/A   Overcast
6:07 PM 57.2 °F 50.0 °F 77% 30.18 in 10.0 mi NW 6.9 mph - N/A   Overcast
6:40 PM 57.2 °F 50.0 °F 77% 30.18 in 10.0 mi WNW 4.6 mph - N/A   Overcast
6:55 PM 56.8 °F 51.1 °F 81% 30.18 in 10.0 mi NW 5.8 mph - N/A   Overcast
7:13 PM 57.2 °F 50.0 °F 77% 30.17 in 10.0 mi WNW 4.6 mph - N/A   Overcast
7:52 PM 57.2 °F 51.8 °F 82% 30.17 in 10.0 mi NW 6.9 mph - N/A   Overcast
7:55 PM 56.3 °F 51.3 °F 83% 30.17 in 10.0 mi NW 5.8 mph - N/A   Overcast
8:00 PM 57.2 °F 51.8 °F 82% 30.17 in 10.0 mi NNW 4.6 mph - N/A   Overcast
8:05 PM 57.2 °F 51.8 °F 82% 30.17 in 10.0 mi NW 5.8 mph - N/A   Overcast
8:25 PM 55.4 °F 51.8 °F 88% 30.17 in 10.0 mi WNW 3.5 mph - N/A   Overcast
8:55 PM 55.8 °F 51.4 °F 85% 30.16 in 10.0 mi WNW 4.6 mph - N/A   Overcast
9:36 PM 55.4 °F 51.8 °F 88% 30.15 in 10.0 mi Calm Calm - N/A   Overcast
9:38 PM 55.4 °F 51.8 °F 88% 30.15 in 10.0 mi Calm Calm - N/A   Overcast
9:39 PM 55.4 °F 51.8 °F 88% 30.15 in 10.0 mi Calm Calm - N/A   Overcast
9:48 PM 55.4 °F 51.8 °F 88% 30.15 in 10.0 mi Calm Calm - N/A   Overcast
9:51 PM 55.4 °F 51.8 °F 88% 30.15 in 10.0 mi Calm Calm - N/A   Overcast
9:53 PM 55.4 °F 51.8 °F 88% 30.15 in 10.0 mi Calm Calm - N/A   Overcast
9:55 PM 55.6 °F 51.4 °F 86% 30.15 in 10.0 mi Calm Calm - N/A   Overcast
9:57 PM 55.4 °F 51.8 °F 88% 30.15 in 10.0 mi Calm Calm - N/A   Overcast
10:04 PM 55.4 °F 51.8 °F 88% 30.15 in 10.0 mi NW 3.5 mph - N/A   Overcast
10:55 PM 55.0 °F 51.6 °F 88% 30.16 in 10.0 mi NW 3.5 mph - N/A   Overcast
11:04 PM 55.4 °F 51.8 °F 88% 30.16 in 10.0 mi NW 3.5 mph - N/A   Overcast
11:55 PM 54.9 °F 52.0 °F 90% 30.16 in 10.0 mi NW 3.5 mph - N/A   Overcast